Aviation Digital Data Service (ADDS)

Output produced by METARs form (1804 UTC 29 August 2014)
found at http://www.aviationweather.gov/adds/metars/
 
KROW 291751Z 04008KT 10SM CLR 28/13 A3006 RMK AO2 SLP114 T02780128 10278 20200 58000
KROW 291651Z 35006KT 10SM CLR 26/13 A3008 RMK AO2 SLP123 T02560133
KROW 291551Z 02011KT 10SM CLR 24/13 A3008 RMK AO2 SLP119 T02440128
KROW 291451Z 35013KT 10SM CLR 23/13 A3007 RMK AO2 SLP116 T02280128 51011
KROW 291351Z 35012KT 10SM CLR 21/11 A3006 RMK AO2 SLP115 T02110106
KROW 291251Z 34011KT 10SM CLR 20/10 A3005 RMK AO2 SLP106 T02000100
KROW 291151Z 34012KT 10SM CLR 21/09 A3003 RMK AO2 SLP099 T02060089 10233 20200 53014
KROW 291051Z AUTO 33009KT 10SM CLR 21/11 A3001 RMK AO2 SLP092 T02110106
KROW 290951Z AUTO 35009KT 10SM CLR 21/11 A3000 RMK AO2 SLP086 T02110111
KROW 290851Z AUTO 32013KT 10SM CLR 22/09 A2998 RMK AO2 SLP081 T02170089 52002
KROW 290751Z AUTO 32010KT 10SM CLR 22/09 A2998 RMK AO2 SLP081 T02170089
KROW 290651Z AUTO VRB06KT 10SM FEW110 22/09 A2998 RMK AO2 SLP082 T02170094 403440189
KROW 290551Z AUTO 28010KT 10SM CLR 23/09 A2998 RMK AO2 SLP079 T02330089 10339 20228 50003
KROW 290451Z AUTO 29008KT 10SM CLR 23/09 A2999 RMK AO2 SLP085 T02330094
KROW 290351Z AUTO 30007KT 10SM CLR 25/08 A2998 RMK AO2 SLP084 T02500083
KROW 290251Z AUTO 30005KT 10SM FEW110 27/07 A2997 RMK AO2 SLP077 T02720067 53012
KROW 290151Z 32006KT 10SM CLR 29/07 A2995 RMK AO2 SLP074 T02890067
KROW 290051Z 26003KT 10SM SCT110 33/09 A2993 RMK AO2 SLP065 T03330094
KROW 282351Z VRB03KT 10SM CLR 33/08 A2992 RMK AO2 SLP063 T03280083 10344 20311 56016
KROW 282251Z 22009KT 10SM FEW100 33/09 A2993 RMK AO2 SLP066 T03330089
KROW 282151Z 16013G17KT 080V230 10SM CLR 33/09 A2995 RMK AO2 SLP071 T03280089
KROW 282051Z 25006KT 10SM FEW110 33/09 A2998 RMK AO2 SLP079 T03330089 58023
KROW 281951Z VRB04KT 10SM CLR 33/08 A3000 RMK AO2 SLP088 T03280083
KROW 281851Z 00000KT 10SM CLR 32/09 A3002 RMK AO2 SLP096 T03170089
KROW 291722Z 2918/3018 06007KT P6SM SKC 
     FM300100 VRB05KT P6SM SKC